Northrop, Minnesota
Current Conditions -  °F | °C
As of 5:35 PM on Saturday 22 Nov 2014 (Local Time) from KFRM Reporting Station
Overcast Overcast  
Wind Chill: 29°   Ceiling: 300
Heat Index: 37°   Visibility: 3mi
Dew Point: 34°   Wind: 14mph
Humidity: 87%   Direction: 170°S
Pressure: 29.58"   Gusts: NA
Location:  43.74°N, 94.44°W
Report Text: KFRM 222335Z AUTO 17012KT 3SM OVC003 03/01 A2958 RMK AO1
Loading
Personal Weather Stations






























Interactive Weather Map New forecast layout! Learn more

10-Day Weather Forecast

Advertisements
Track Severe Weather on mobile